Airfield :







YOU CAN JOIN US ON...

 
LOGIN :

Register | Disclaimer

   EN    FR    IT 

 









Legend :    VFR   Marginal VFR   IFR   Intensive IFR   Very Intensive IFR
Visi :
Ceiling :
>= 8 km
>= 3000ft
5 to 8 km
1000 to 3000 ft
1500m to 5 km
500 to 1000 ft
800 to 1500m
200 to 500 ft
< 800m
< 200 ft
Symbols :   Thunderstorms  Fog  Heavy snow  Heavy precipitations  Wind > 20 kt







- Airport Elevation : 586 ft
- IATA code : YRJ


CYRJ - Roberval

CURRENT METAR :
  • 211100Z 27010KT 20SM -RA SCT026 OVC051 05/03 A2961 RMK SC4SC4 SLP034

EXPIRED METARs :
  • 211000Z 26008KT 40SM -RA FEW023 OVC076 05/03 A2959 RMK SC1AC8 SC TR PCPN VRY LGT SLP028
  • 210916Z 27009KT 40SM -RA FEW023 OVC074 05/04 A2958 RMK SC1AC8 SC TR SLP025
  • 210900Z 26007KT 25SM FEW023 OVC068 05/04 A2958 RMK SC1AS7 INTMT -RA SLP024

Expired Forecast.
CZUL FIR / North America



MET'MAP, your aeronautical weather chart ! - Copyright ORBIFLY December 2007 - Disclaimer

ORBIFLY MET'MAP TEAM :

Programming & Development : Alexandra Zaïnal
Concept & Development : Baudouin d'Aumeries
Co-Development & Prog : Marc-Olivier Méhu
Technical & hardware support : Manuel Goepfert

Contact : metmap@orbifly.com




SOURCES & CREDITS :

   NOAA